• Join FlightAware (Why Join?)
  • Login
  • US Flag 
11:23AM EDT


 

Airport Tracker/Info


-or-


 

Live Flight TrackerFlight Track Log ✈ EJA604 ✈ 24-Apr-2013 ✈ KPBI - KHPN

Flight Track Log - Related Links

Times and Time Zones

All times are in EDT time to prevent confusion due to time zone crossing. See the EJA604 flight status page for this flight to view local times or setup timezone preferences in your user account.

Time Position Orientation Groundspeed Altitude Reporting Facility
EDT Latitude Longitude Course Direction KTS MPH feet Rate Location/Type
01:18PM 26.7381 -79.9969 20° North 197 227 7,200  Level Miami Center
01:19PM 26.8064 -80.0219 342° North 229 264 10,100 2,280 Climbing Miami Center
01:20PM 26.8294 -80.1089 287° West 236 272 11,800 1,560 Climbing Miami Center
01:21PM 26.8422 -80.1953 279° West 301 346 13,300 1,080 Climbing Miami Center
01:22PM 27.0083 -80.3907 338° Northwest  Level FlightAware Approximate
01:22PM 26.8608 -80.2958 282° West 320 368 14,000  Level Miami Center
01:23PM 26.9425 -80.3658 323° Northwest 328 377 15,600 1,680 Climbing Miami Center
01:24PM 27.0314 -80.4036 339° North 328 377 17,400 1,740 Climbing Miami Center
01:25PM 27.1183 -80.4411 339° North 333 383 19,100 1,800 Climbing Miami Center
01:26PM 27.2050 -80.4789 339° North 333 383 21,100 1,920 Climbing Miami Center
01:27PM 27.2939 -80.5167 339° North 333 383 23,000 1,920 Climbing Miami Center
01:28PM 27.3806 -80.5522 340° North 328 377 25,000 1,800 Climbing Miami Center
01:29PM 27.4675 -80.5878 340° North 328 377 26,700 1,680 Climbing Miami Center
01:30PM 27.5519 -80.6233 340° North 328 377 28,400 1,620 Climbing Miami Center
01:31PM 27.6389 -80.6614 339° North 328 377 30,000 1,440 Climbing Miami Center
01:32PM 27.7256 -80.6969 340° North 328 377 31,300 1,200 Climbing Miami Center
01:33PM 27.8122 -80.7350 339° North 328 377 32,500 1,200 Climbing Miami Center
01:34PM 27.9053 -80.7689 342° North 333 383 33,700 1,080 Climbing Miami Center
01:35PM 27.9878 -80.8044 339° North 333 383 34,700 900 Climbing Miami Center
01:36PM 28.0764 -80.8431 339° North 333 383 35,600 840 Climbing Miami Center
01:37PM 28.1669 -80.8814 340° North 333 383 36,400 900 Climbing Miami Center
01:38PM 28.2558 -80.9175 340° North 333 383 37,400 1,020 Climbing Miami Center
01:39PM 28.3444 -80.9539 340° North 333 383 38,500 960 Climbing Miami Center
01:40PM 28.4311 -80.9925 339° North 333 383 39,400 900 Climbing Miami Center
01:41PM 28.5175 -81.0311 339° North 327 376 40,300 780 Climbing Miami Center
01:42PM 28.5997 -81.0697 338° Northwest 327 376 41,000 480 Climbing Miami Center
01:42PM 28.6233 -81.0808 338° Northwest 327 376 41,000  Level Jacksonville Center
01:43PM 28.7117 -81.1197 339° North 348 400 41,000  Level Jacksonville Center
01:44PM 28.8078 -81.1439 348° North 348 400 41,000  Level Jacksonville Center
01:45PM 28.9064 -81.1683 348° North 353 406 41,000  Level Jacksonville Center
01:46PM 29.0069 -81.1928 348° North 359 413 41,000  Level Jacksonville Center
01:47PM 29.1053 -81.2172 348° North 359 413 41,000  Level Jacksonville Center
01:48PM 29.2036 -81.2369 350° North 354 407 41,000  Level Jacksonville Center
01:49PM 29.3019 -81.2614 348° North 354 407 41,000  Level Jacksonville Center
01:50PM 29.3964 -81.2861 347° North 354 407 41,000  Level Jacksonville Center
01:51PM 29.4906 -81.3061 350° North 354 407 41,000  Level Jacksonville Center
01:52PM 29.5889 -81.3306 348° North 354 407 41,000  Level Jacksonville Center
01:53PM 29.6853 -81.3531 349° North 354 407 41,000  Level Jacksonville Center
01:54PM 29.7836 -81.3753 349° North 354 407 41,000  Level Jacksonville Center
01:56PM 29.9783 -81.4250 348° North 354 407 41,000  Level Jacksonville Center
01:57PM 30.0808 -81.4475 349° North 359 413 41,000  Level Jacksonville Center
01:58PM 30.1792 -81.4700 349° North 359 413 41,000  Level Jacksonville Center
01:59PM 30.2819 -81.4950 348° North 359 413 41,000  Level Jacksonville Center
02:00PM 30.3842 -81.4936 North 359 413 41,000  Level Jacksonville Center
02:01PM 30.4903 -81.4583 16° North 369 425 41,000  Level Jacksonville Center
02:02PM 30.5964 -81.4228 16° North 380 437 41,000  Level Jacksonville Center
02:03PM 30.7044 -81.3872 16° North 385 443 41,000  Level Jacksonville Center
02:04PM 30.8083 -81.3542 15° North 391 450 41,000  Level Jacksonville Center
02:05PM 30.9186 -81.3186 15° North 398 458 41,000  Level Jacksonville Center
02:06PM 31.0247 -81.2828 16° North 398 458 41,000  Level Jacksonville Center
02:07PM 31.1328 -81.2422 18° North 393 452 41,000  Level Jacksonville Center
02:08PM 31.2408 -81.2064 16° North 393 452 41,000  Level Jacksonville Center
02:09PM 31.3528 -81.1531 22° Northeast 393 452 41,000  Level Jacksonville Center
02:10PM 31.4564 -81.0831 30° Northeast 414 476 41,000  Level Jacksonville Center
02:11PM 31.5472 -81.0178 31° Northeast 419 482 41,000  Level Jacksonville Center
02:12PM 31.6547 -80.9400 32° Northeast 419 482 41,000  Level Jacksonville Center
02:13PM 31.7456 -80.8772 30° Northeast 419 482 41,000  Level Jacksonville Center
02:14PM 31.8528 -80.7989 32° Northeast 420 483 41,000  Level Jacksonville Center
02:15PM 31.9517 -80.7281 31° Northeast 420 483 41,000  Level Jacksonville Center
02:16PM 32.0425 -80.6647 31° Northeast 420 483 41,000  Level Jacksonville Center
02:17PM 32.1475 -80.5861 32° Northeast 420 483 41,000  Level Jacksonville Center
02:18PM 32.2467 -80.5172 30° Northeast 415 478 41,000  Level Jacksonville Center
02:19PM 32.3433 -80.4458 32° Northeast 410 472 41,000  Level Jacksonville Center
02:20PM 32.4419 -80.3719 32° Northeast 410 472 41,000  Level Jacksonville Center
02:21PM 32.5389 -80.3028 31° Northeast 410 472 41,000  Level Jacksonville Center
02:22PM 32.6333 -80.2308 33° Northeast 410 472 41,000  Level Jacksonville Center
02:23PM 32.7319 -80.1564 32° Northeast 410 472 41,000  Level Jacksonville Center
02:24PM 32.8306 -80.0842 32° Northeast 410 472 41,000  Level Jacksonville Center
02:25PM 32.9247 -80.0019 36° Northeast 410 472 41,000  Level Jacksonville Center
02:26PM 33.0144 -79.9175 38° Northeast 415 478 41,000  Level Jacksonville Center
02:27PM 33.1064 -79.8300 39° Northeast 415 478 41,000  Level Jacksonville Center
02:28PM 33.1961 -79.7450 38° Northeast 415 478 41,000  Level Jacksonville Center
02:29PM 33.2797 -79.6650 39° Northeast 415 478 41,000  Level Jacksonville Center
02:30PM 33.3672 -79.5775 40° Northeast 415 478 41,000  Level Jacksonville Center
02:31PM 33.4586 -79.4894 39° Northeast 415 478 41,000  Level Jacksonville Center
02:32PM 33.5483 -79.4036 39° Northeast 415 478 41,000  Level Jacksonville Center
02:33PM 33.6375 -79.3153 40° Northeast 415 478 41,000  Level Jacksonville Center
02:35PM 33.8275 -79.1264 40° Northeast 394 453 41,000  Level Washington Center
02:36PM 33.9156 -79.0375 40° Northeast 399 459 41,000  Level Washington Center
02:37PM 34.0078 -78.9486 39° Northeast 410 472 41,000  Level Washington Center
02:38PM 34.0981 -78.8594 39° Northeast 410 472 41,000  Level Washington Center
02:39PM 34.1922 -78.7703 38° Northeast 410 472 41,000  Level Washington Center
02:40PM 34.2781 -78.6808 41° Northeast 410 472 41,000  Level Washington Center
02:41PM 34.3700 -78.5886 40° Northeast 410 472 41,000  Level Washington Center
02:42PM 34.4600 -78.4986 39° Northeast 410 472 41,000  Level Washington Center
02:43PM 34.5478 -78.4033 42° Northeast 410 472 41,000  Level Washington Center
02:44PM 34.6394 -78.3183 37° Northeast 410 472 41,000  Level Washington Center
02:45PM 34.7292 -78.2253 40° Northeast 410 472 41,000  Level Washington Center
02:46PM 34.8017 -78.1517 40° Northeast 410 472 41,000  Level Washington Center
02:47PM 34.8956 -78.0483 42° Northeast 410 472 41,000  Level Washington Center
02:48PM 34.9831 -77.9572 40° Northeast 410 472 41,000  Level Washington Center
02:49PM 35.0725 -77.8658 40° Northeast 410 472 41,000  Level Washington Center
02:50PM 35.1725 -77.7644 40° Northeast 415 478 41,000  Level Washington Center
02:51PM 35.2617 -77.6728 40° Northeast 415 478 41,000  Level Washington Center
02:52PM 35.3489 -77.5808 41° Northeast 410 472 41,000  Level Washington Center
02:53PM 35.4419 -77.4992 36° Northeast 410 472 41,000  Level Washington Center
02:54PM 35.5350 -77.4144 37° Northeast 415 478 41,000  Level Washington Center
02:55PM 35.6281 -77.3322 36° Northeast 415 478 41,000  Level Washington Center
02:56PM 35.7231 -77.2525 34° Northeast 410 472 41,000  Level Washington Center
02:57PM 35.8161 -77.1672 37° Northeast 410 472 41,000  Level Washington Center
02:58PM 35.9069 -77.0844 36° Northeast 410 472 41,000  Level Washington Center
02:59PM 36.0017 -77.0017 35° Northeast 410 472 41,000  Level Washington Center
03:00PM 36.0967 -76.9183 35° Northeast 410 472 41,000  Level Washington Center
03:01PM 36.1914 -76.8350 35° Northeast 410 472 41,000  Level Washington Center
03:02PM 36.2861 -76.7489 36° Northeast 415 478 41,000  Level Washington Center
03:03PM 36.3828 -76.6628 36° Northeast 420 483 41,000  Level Washington Center
03:04PM 36.4794 -76.5761 36° Northeast 420 483 41,000  Level Washington Center
03:05PM 36.5803 -76.5025 30° Northeast 420 483 41,000  Level Washington Center
03:06PM 36.6808 -76.4336 29° Northeast 415 478 41,000  Level Washington Center
03:07PM 36.7775 -76.3647 30° Northeast 410 472 41,000  Level Washington Center
03:08PM 36.8781 -76.2956 29° Northeast 405 466 41,000  Level Washington Center
03:09PM 36.9764 -76.2289 28° Northeast 400 460 41,000  Level Washington Center
03:10PM 37.0789 -76.1567 29° Northeast 400 460 41,000  Level Washington Center
03:11PM 37.1750 -76.0975 26° Northeast 406 467 41,000  Level Washington Center
03:12PM 37.2775 -76.0253 29° Northeast 412 474 41,000  Level Washington Center
03:13PM 37.3800 -75.9525 29° Northeast 417 480 41,000  Level Washington Center
03:14PM 37.4825 -75.8797 29° Northeast 417 480 41,000  Level Washington Center
03:15PM 37.5847 -75.8067 30° Northeast 417 480 41,000  Level Washington Center
03:16PM 37.6892 -75.7336 29° Northeast 417 480 41,000  Level Washington Center
03:17PM 37.7936 -75.6575 30° Northeast 417 480 41,000  Level Washington Center
03:18PM 37.8978 -75.5867 28° Northeast 417 480 41,000  Level Washington Center
03:19PM 38.0022 -75.5100 30° Northeast 422 486 41,000  Level Washington Center
03:20PM 38.1083 -75.4361 29° Northeast 422 486 41,000  Level Washington Center
03:21PM 38.2167 -75.3697 26° Northeast 422 486 41,000  Level Washington Center
03:22PM 38.3228 -75.3058 25° Northeast 422 486 41,000  Level Washington Center
03:23PM 38.4289 -75.2286 30° Northeast 428 493 41,000  Level Washington Center
03:24PM 38.5353 -75.1644 25° Northeast 428 493 41,000  Level Washington Center
03:25PM 38.6433 -75.0947 27° Northeast 428 493 41,000 -180 Level Washington Center
03:27PM 38.7754 -74.9907 26° Northeast  Level FlightAware Approximate
03:27PM 38.8508 -74.9306 26° Northeast 438 504 40,600  Level Washington Center
03:28PM 38.9483 -74.8469 34° Northeast 433 498 38,300 -2,220 Descending Washington Center
03:29PM 39.0417 -74.7658 34° Northeast 415 478 36,200 -2,100 Descending Washington Center
03:30PM 39.1308 -74.6925 33° Northeast 400 460 34,200 -2,100 Descending Washington Center
03:31PM 39.2239 -74.6083 35° Northeast 394 453 32,000 -2,280 Descending Washington Center
03:32PM 39.3414 -74.5075 34° Northeast 411 473 29,300 -2,280 Descending New York Center
03:33PM 39.4381 -74.4214 35° Northeast 411 473 27,100 -2,340 Descending New York Center
03:34PM 39.5408 -74.3297 35° Northeast 416 479 24,800 -1,680 Descending New York Center
03:35PM 39.6353 -74.2375 37° Northeast 429 494 23,800 -960 Descending New York Center
03:36PM 39.7322 -74.1369 39° Northeast 434 499 22,900 -900 Descending New York Center
03:37PM 39.8200 -74.0467 38° Northeast 442 509 22,000 -480 Descending New York Center
03:38PM 39.9125 -73.9453 40° Northeast 442 509 22,000  Level New York Center
03:39PM 40.0089 -73.8467 38° Northeast 436 502 22,000 -600 Level New York Center
03:42PM 40.2231 -73.6058 41° Northeast 426 490 20,000 -1,200 Descending Boston Center
03:43PM 40.3156 -73.5150 37° Northeast 415 478 18,000 -1,560 Descending Boston Center
03:44PM 40.4100 -73.4403 31° Northeast 405 466 16,900 -600 Descending Boston Center
03:45PM 40.5144 -73.4064 14° North 388 447 16,900  Level Boston Center
03:46PM 40.6231 -73.3697 14° North 388 447 16,900 -360 Level Boston Center
03:46PM 40.7167 -73.3333 16° North 375 432 16,300 -1,140 Descending New York TRACON
03:47PM 40.8000 -73.2833 24° Northeast 352 405 15,000 -1,320 Descending New York TRACON
03:48PM 40.8500 -73.1833 57° Northeast 374 430 13,800 -1,560 Descending New York TRACON
03:49PM 40.9000 -73.0667 60° Northeast 345 397 11,900 -1,980 Descending New York TRACON
03:50PM 40.9500 -72.9667 56° Northeast 325 374 9,900 -2,040 Descending New York TRACON
03:51PM 41.0000 -72.8667 56° Northeast 315 362 7,800 -1,980 Descending New York TRACON
03:52PM 41.0833 -72.8333 17° North 299 344 6,000 -1,320 Descending New York TRACON
03:53PM 41.1500 -72.8833 331° Northwest 266 306 5,300 -900 Descending New York TRACON
03:54PM 41.1667 -72.9833 283° West 251 289 4,300 -660 Descending New York TRACON
03:55PM 41.1667 -73.0833 270° West 247 284 4,000 -180 Descending New York TRACON
03:56PM 41.1667 -73.1667 270° West 250 288 4,000  Level New York TRACON
03:57PM 41.1667 -73.2500 270° West 248 285 4,000  Level New York TRACON
03:58PM 41.1833 -73.3500 283° West 249 287 4,100 -240 Climbing New York TRACON
03:59PM 41.1833 -73.4333 270° West 247 284 3,600 -600 Descending New York TRACON
04:00PM 41.1833 -73.5167 270° West 247 284 3,000 -300 Descending New York TRACON
04:01PM 41.2167 -73.6167 294° West 216 249 3,000  Level New York TRACON
04:02PM 41.2333 -73.6667 294° West 175 201 3,100 -120 Climbing New York TRACON
04:03PM 41.2333 -73.7333 270° West 179 206 2,800 -480 Descending New York TRACON
04:04PM 41.2167 -73.8000 252° West 176 203 2,100 -360 Descending New York TRACON
04:05PM 41.1667 -73.7833 166° South 171 197 2,100 -120 Level New York TRACON
04:06PM 41.1333 -73.7667 159° South 154 177 1,900 -540 Descending New York TRACON
04:07PM 41.1000 -73.7333 143° Southeast 128 147 1,100 -780 Descending New York TRACON
04:09PM 41.0667 -73.7000 171° South  Level FlightAware Approximate
04:16PM 41.0669 -73.7076 171° South  Level Estimated
04:17PM 41.0667 -73.7000 171° South  Level FlightAware Approximate